Barbara E Bouchard — WBD6759 — position and weather

sailwx.info

Track history (hours):
 
Tides and Currents Weather Stations Pressure Air Temp Water Temp Dewpoint Dewpoint Depression Visibility Wind Speed Wind Dir Waves Ship Positions

Barbara E Bouchard

Owner: TUG BARBARA E BOUCHARD CORP, MELVILLE, NY. More information available from US FCC via Universal Licensing System and Coast Guard Vessel Documentation Center.

Last reported at 2018-Jun-09 08:31 UTC. Time now 2018-Jun-20 22:46 UTC.
Position N 25°30' W 080°01'.
Warning: this ship's position is 11 days out of date.

Length 175 m; draft 7.8 m.

Type: . MMSI: 367006520.

Date/timePositionNaut miles runAvg speedWind from/ knotsBaromVisibWave heightAir tempDewpointWater temp
2018-Jun-09 08:31N 25°30' W 080°01'0 8.3
2018-Jun-09 08:28N 25°31' W 080°01'4 8.4
2018-Jun-09 07:59N 25°35' W 080°02'4 8.4
2018-Jun-09 07:30N 25°39' W 080°02'4 7.7
2018-Jun-09 07:00N 25°42' W 080°02'4 7.7
2018-Jun-09 06:30N 25°46' W 080°02'4 7.4
2018-Jun-09 06:00N 25°50' W 080°02'3 7.0
2018-Jun-09 05:30N 25°53' W 080°02'3 6.6
2018-Jun-09 05:00N 25°57' W 080°02'3 6.2
2018-Jun-09 04:30N 25°60' W 080°02'3 5.9
2018-Jun-09 04:00N 26°03' W 080°02'4 7.3
2018-Jun-09 03:30N 26°05' W 080°05'2 4.1
2018-Jun-09 03:00N 26°06' W 080°07'0 0.0
2018-Jun-09 02:30N 26°06' W 080°07'0 0.0
2018-Jun-09 02:00N 26°06' W 080°07'0 0.2
2018-Jun-09 01:21N 26°06' W 080°07'0 0.0
2018-Jun-09 00:51N 26°06' W 080°07'0 0.0
2018-Jun-09 00:21N 26°06' W 080°07'0 0.0
2018-Jun-08 23:51N 26°06' W 080°07'0 0.0
2018-Jun-08 23:24N 26°06' W 080°07'0 0.0
2018-Jun-08 22:51N 26°06' W 080°07'0 0.0
2018-Jun-08 22:24N 26°06' W 080°07'0 0.0
2018-Jun-08 21:54N 26°06' W 080°07'0 0.0
2018-Jun-08 21:24N 26°06' W 080°07'0 0.0
2018-Jun-08 20:54N 26°06' W 080°07'0 0.0
2018-Jun-08 20:24N 26°06' W 080°07'0 0.0
2018-Jun-08 19:54N 26°06' W 080°07'0 0.0
2018-Jun-08 19:24N 26°06' W 080°07'0 0.0
2018-Jun-08 18:57N 26°06' W 080°07'0 0.0
2018-Jun-08 18:24N 26°06' W 080°07'0 0.0
2018-Jun-08 17:57N 26°06' W 080°07'0 0.0
2018-Jun-08 17:27N 26°06' W 080°07'0 0.0
2018-Jun-08 16:57N 26°06' W 080°07'0 0.0
2018-Jun-08 16:27N 26°06' W 080°07'0 0.0
2018-Jun-08 15:57N 26°06' W 080°07'0 0.0
2018-Jun-08 15:30N 26°06' W 080°07'0 0.0
2018-Jun-08 15:00N 26°06' W 080°07'0 0.0
2018-Jun-08 14:30N 26°06' W 080°07'0 0.0
2018-Jun-08 14:00N 26°06' W 080°07'0 0.0
2018-Jun-08 13:27N 26°06' W 080°07'0 0.0
2018-Jun-08 12:57N 26°06' W 080°07'0 0.0
2018-Jun-08 12:27N 26°06' W 080°07'0 0.0
2018-Jun-08 12:00N 26°06' W 080°07'0 0.0
2018-Jun-08 11:30N 26°06' W 080°07'0 0.0
2018-Jun-08 10:48N 26°06' W 080°07'0 0.0
2018-Jun-08 10:30N 26°06' W 080°07'0 0.0
2018-Jun-08 10:00N 26°06' W 080°07'0 0.0
2018-Jun-08 09:21N 26°06' W 080°07'0 0.0
2018-Jun-08 09:00N 26°06' W 080°07'0 0.0
2018-Jun-08 08:21N 26°06' W 080°07'0 0.0
2018-Jun-08 07:51N 26°06' W 080°07'0 0.0
2018-Jun-08 07:21N 26°06' W 080°07'0 0.0
2018-Jun-08 06:51N 26°06' W 080°07'0 0.0
2018-Jun-08 06:24N 26°06' W 080°07'0 0.0
2018-Jun-08 05:54N 26°06' W 080°07'0 0.0
2018-Jun-08 05:24N 26°06' W 080°07'0 0.0
2018-Jun-08 04:54N 26°06' W 080°07'0 0.0
2018-Jun-08 04:27N 26°06' W 080°07'0 0.0
2018-Jun-08 03:57N 26°06' W 080°07'0 0.0
2018-Jun-08 03:27N 26°06' W 080°07'0 0.0
2018-Jun-08 02:54N 26°06' W 080°07'0 0.0
2018-Jun-08 02:27N 26°06' W 080°07'0 0.0
2018-Jun-08 01:54N 26°06' W 080°07'0 0.0
2018-Jun-08 01:27N 26°06' W 080°07'0 0.0
2018-Jun-08 01:00N 26°06' W 080°07'0 0.0
2018-Jun-08 00:30N 26°06' W 080°07'0 0.0
2018-Jun-08 00:00N 26°06' W 080°07'0 0.0
2018-Jun-07 23:30N 26°06' W 080°07'0 0.0
2018-Jun-07 23:00N 26°06' W 080°07'0 0.0
2018-Jun-07 22:30N 26°06' W 080°07'0 0.0
2018-Jun-07 22:00N 26°06' W 080°07'0 0.0
2018-Jun-07 21:30N 26°06' W 080°07'0 0.0
2018-Jun-07 21:00N 26°06' W 080°07'0 0.0
2018-Jun-07 20:30N 26°06' W 080°07'0 0.0
2018-Jun-07 20:00N 26°06' W 080°07'0 0.0
2018-Jun-07 19:30N 26°06' W 080°07'0 0.0
2018-Jun-07 19:00N 26°06' W 080°07'0 0.0
2018-Jun-07 18:30N 26°06' W 080°07'0 0.0
2018-Jun-07 17:51N 26°06' W 080°07'0 0.0
2018-Jun-07 17:21N 26°06' W 080°07'0 0.0
2018-Jun-07 16:51N 26°06' W 080°07'0 0.0
2018-Jun-07 16:24N 26°06' W 080°07'0 0.0
2018-Jun-07 15:48N 26°06' W 080°07'0 0.0
2018-Jun-07 15:18N 26°06' W 080°07'0 0.0
2018-Jun-07 14:54N 26°06' W 080°07'0 0.0
2018-Jun-07 14:24N 26°06' W 080°07'0 0.0
2018-Jun-07 13:51N 26°06' W 080°07'0 0.0
2018-Jun-07 13:21N 26°06' W 080°07'0 0.0
2018-Jun-07 12:54N 26°06' W 080°07'0 0.0
2018-Jun-07 12:27N 26°06' W 080°07'0 0.0
2018-Jun-07 11:57N 26°06' W 080°07'0 0.0
2018-Jun-07 11:27N 26°06' W 080°07'0 0.0
2018-Jun-07 10:57N 26°06' W 080°07'0 0.0
2018-Jun-07 10:27N 26°06' W 080°07'0 0.0
2018-Jun-07 10:00N 26°06' W 080°07'0 0.0
2018-Jun-07 09:30N 26°06' W 080°07'0 0.2
2018-Jun-07 09:00N 26°06' W 080°07'0 0.0
2018-Jun-07 08:30N 26°06' W 080°07'1 1.0
2018-Jun-07 08:01N 26°06' W 080°07'4 7.6
2018-Jun-07 07:30N 26°06' W 080°02'0 0.8
2018-Jun-07 07:00N 26°06' W 080°02'2 3.8
2018-Jun-07 06:30N 26°06' W 080°04'1 1.3
2018-Jun-07 06:00N 26°07' W 080°05'0 0.0
2018-Jun-07 05:28N 26°07' W 080°05'0 0.0
2018-Jun-07 04:49N 26°07' W 080°05'0 0.0
2018-Jun-07 04:19N 26°07' W 080°05'0 0.0
2018-Jun-07 03:49N 26°07' W 080°05'0 0.0
2018-Jun-07 03:22N 26°07' W 080°05'0 0.0
2018-Jun-07 02:49N 26°07' W 080°05'0 0.1
2018-Jun-07 02:22N 26°07' W 080°05'0 0.0
2018-Jun-07 01:58N 26°07' W 080°05'0 0.0
2018-Jun-07 01:25N 26°07' W 080°05'0 0.1
2018-Jun-07 00:52N 26°07' W 080°05'0 0.0
2018-Jun-07 00:22N 26°07' W 080°05'0 0.1
2018-Jun-06 23:55N 26°07' W 080°05'0 0.3
2018-Jun-06 23:19N 26°07' W 080°05'0 0.1
2018-Jun-06 22:55N 26°07' W 080°05'0 0.1
2018-Jun-06 22:25N 26°07' W 080°05'0 0.0
2018-Jun-06 21:55N 26°07' W 080°05'0 0.0
2018-Jun-06 21:25N 26°07' W 080°05'0 0.0
2018-Jun-06 20:58N 26°07' W 080°05'0 0.0
2018-Jun-06 20:28N 26°07' W 080°05'0 0.0
2018-Jun-06 19:58N 26°07' W 080°05'0 0.0
2018-Jun-06 19:28N 26°07' W 080°05'0 0.0
2018-Jun-06 18:58N 26°07' W 080°05'0 0.0
2018-Jun-06 18:28N 26°07' W 080°05'0 0.0
2018-Jun-06 17:58N 26°07' W 080°05'0 0.0
2018-Jun-06 17:28N 26°07' W 080°05'0 0.0
2018-Jun-06 16:58N 26°07' W 080°05'0 0.0
2018-Jun-06 16:28N 26°07' W 080°05'0 0.0
2018-Jun-06 15:58N 26°07' W 080°05'0 0.0
2018-Jun-06 15:28N 26°07' W 080°05'0 0.0
2018-Jun-06 14:58N 26°07' W 080°05'0 0.0
2018-Jun-06 14:28N 26°07' W 080°05'0 0.0
2018-Jun-06 13:58N 26°07' W 080°05'0 0.0
2018-Jun-06 13:19N 26°07' W 080°05'0 0.1
2018-Jun-06 12:49N 26°07' W 080°05'0 0.0
2018-Jun-06 12:19N 26°07' W 080°05'0 0.0
2018-Jun-06 11:49N 26°07' W 080°05'0 0.1
2018-Jun-06 11:22N 26°07' W 080°05'0 0.0
2018-Jun-06 10:49N 26°07' W 080°05'0 0.0
2018-Jun-06 10:22N 26°07' W 080°05'0 0.0
2018-Jun-06 09:52N 26°07' W 080°05'0 0.0
2018-Jun-06 09:25N 26°07' W 080°05'0 0.0
2018-Jun-06 08:55N 26°07' W 080°05'0 0.0
2018-Jun-06 08:22N 26°07' W 080°05'0 0.1
2018-Jun-06 07:55N 26°07' W 080°05'0 0.0
2018-Jun-06 07:25N 26°07' W 080°05'0 0.1
2018-Jun-06 06:55N 26°07' W 080°05'0 0.0
2018-Jun-06 06:25N 26°07' W 080°05'0 0.0
2018-Jun-06 05:58N 26°07' W 080°05'0 0.0
2018-Jun-06 05:22N 26°07' W 080°05'0 0.1
2018-Jun-06 04:58N 26°07' W 080°05'0 0.0
2018-Jun-06 04:25N 26°07' W 080°05'0 0.0
2018-Jun-06 03:58N 26°07' W 080°05'0 0.0
2018-Jun-06 03:28N 26°07' W 080°05'0 0.0
2018-Jun-06 02:58N 26°07' W 080°05'0 0.0
2018-Jun-06 02:28N 26°07' W 080°05'0 0.1
2018-Jun-06 01:58N 26°07' W 080°05'0 0.0
2018-Jun-06 01:28N 26°07' W 080°05'0 0.0
2018-Jun-06 01:00N 26°07' W 080°05'0 0.1
2018-Jun-06 00:30N 26°07' W 080°05'0 0.4
2018-Jun-06 00:00N 26°07' W 080°05'0 0.4
2018-Jun-05 23:30N 26°07' W 080°05'3 6.6
2018-Jun-05 23:00N 26°06' W 080°01'712.8
2018-Jun-05 22:28N 25°59' W 080°01'612.8
2018-Jun-05 22:00N 25°53' W 080°01'612.4
2018-Jun-05 21:30N 25°47' W 080°00'611.9
2018-Jun-05 21:00N 25°41' W 079°60'611.4
2018-Jun-05 20:30N 25°35' W 079°60'  
Track history (hours):
 
Tides and Currents Weather Stations Pressure Air Temp Water Temp Dewpoint Dewpoint Depression Visibility Wind Speed Wind Dir Waves Ship Positions

Barbara E Bouchard

Owner: TUG BARBARA E BOUCHARD CORP, MELVILLE, NY. More information available from US FCC via Universal Licensing System and Coast Guard Vessel Documentation Center.

Last reported at 2018-Jun-09 08:31 UTC. Time now 2018-Jun-20 22:46 UTC.
Position N 25°30' W 080°01'.
Warning: this ship's position is 11 days out of date.

Length 175 m; draft 7.8 m.

Type: . MMSI: 367006520.

Date/timePositionNaut miles runAvg speedWind from/ knotsBaromVisibWave heightAir tempDewpointWater temp
2018-Jun-09 08:31N 25°30' W 080°01'0 8.3
2018-Jun-09 08:28N 25°31' W 080°01'4 8.4
2018-Jun-09 07:59N 25°35' W 080°02'4 8.4
2018-Jun-09 07:30N 25°39' W 080°02'4 7.7
2018-Jun-09 07:00N 25°42' W 080°02'4 7.7
2018-Jun-09 06:30N 25°46' W 080°02'4 7.4
2018-Jun-09 06:00N 25°50' W 080°02'3 7.0
2018-Jun-09 05:30N 25°53' W 080°02'3 6.6
2018-Jun-09 05:00N 25°57' W 080°02'3 6.2
2018-Jun-09 04:30N 25°60' W 080°02'3 5.9
2018-Jun-09 04:00N 26°03' W 080°02'4 7.3
2018-Jun-09 03:30N 26°05' W 080°05'2 4.1
2018-Jun-09 03:00N 26°06' W 080°07'0 0.0
2018-Jun-09 02:30N 26°06' W 080°07'0 0.0
2018-Jun-09 02:00N 26°06' W 080°07'0 0.2
2018-Jun-09 01:21N 26°06' W 080°07'0 0.0
2018-Jun-09 00:51N 26°06' W 080°07'0 0.0
2018-Jun-09 00:21N 26°06' W 080°07'0 0.0
2018-Jun-08 23:51N 26°06' W 080°07'0 0.0
2018-Jun-08 23:24N 26°06' W 080°07'0 0.0
2018-Jun-08 22:51N 26°06' W 080°07'0 0.0
2018-Jun-08 22:24N 26°06' W 080°07'0 0.0
2018-Jun-08 21:54N 26°06' W 080°07'0 0.0
2018-Jun-08 21:24N 26°06' W 080°07'0 0.0
2018-Jun-08 20:54N 26°06' W 080°07'0 0.0
2018-Jun-08 20:24N 26°06' W 080°07'0 0.0
2018-Jun-08 19:54N 26°06' W 080°07'0 0.0
2018-Jun-08 19:24N 26°06' W 080°07'0 0.0
2018-Jun-08 18:57N 26°06' W 080°07'0 0.0
2018-Jun-08 18:24N 26°06' W 080°07'0 0.0
2018-Jun-08 17:57N 26°06' W 080°07'0 0.0
2018-Jun-08 17:27N 26°06' W 080°07'0 0.0
2018-Jun-08 16:57N 26°06' W 080°07'0 0.0
2018-Jun-08 16:27N 26°06' W 080°07'0 0.0
2018-Jun-08 15:57N 26°06' W 080°07'0 0.0
2018-Jun-08 15:30N 26°06' W 080°07'0 0.0
2018-Jun-08 15:00N 26°06' W 080°07'0 0.0
2018-Jun-08 14:30N 26°06' W 080°07'0 0.0
2018-Jun-08 14:00N 26°06' W 080°07'0 0.0
2018-Jun-08 13:27N 26°06' W 080°07'0 0.0
2018-Jun-08 12:57N 26°06' W 080°07'0 0.0
2018-Jun-08 12:27N 26°06' W 080°07'0 0.0
2018-Jun-08 12:00N 26°06' W 080°07'0 0.0
2018-Jun-08 11:30N 26°06' W 080°07'0 0.0
2018-Jun-08 10:48N 26°06' W 080°07'0 0.0
2018-Jun-08 10:30N 26°06' W 080°07'0 0.0
2018-Jun-08 10:00N 26°06' W 080°07'0 0.0
2018-Jun-08 09:21N 26°06' W 080°07'0 0.0
2018-Jun-08 09:00N 26°06' W 080°07'0 0.0
2018-Jun-08 08:21N 26°06' W 080°07'0 0.0
2018-Jun-08 07:51N 26°06' W 080°07'0 0.0
2018-Jun-08 07:21N 26°06' W 080°07'0 0.0
2018-Jun-08 06:51N 26°06' W 080°07'0 0.0
2018-Jun-08 06:24N 26°06' W 080°07'0 0.0
2018-Jun-08 05:54N 26°06' W 080°07'0 0.0
2018-Jun-08 05:24N 26°06' W 080°07'0 0.0
2018-Jun-08 04:54N 26°06' W 080°07'0 0.0
2018-Jun-08 04:27N 26°06' W 080°07'0 0.0
2018-Jun-08 03:57N 26°06' W 080°07'0 0.0
2018-Jun-08 03:27N 26°06' W 080°07'0 0.0
2018-Jun-08 02:54N 26°06' W 080°07'0 0.0
2018-Jun-08 02:27N 26°06' W 080°07'0 0.0
2018-Jun-08 01:54N 26°06' W 080°07'0 0.0
2018-Jun-08 01:27N 26°06' W 080°07'0 0.0
2018-Jun-08 01:00N 26°06' W 080°07'0 0.0
2018-Jun-08 00:30N 26°06' W 080°07'0 0.0
2018-Jun-08 00:00N 26°06' W 080°07'0 0.0
2018-Jun-07 23:30N 26°06' W 080°07'0 0.0
2018-Jun-07 23:00N 26°06' W 080°07'0 0.0
2018-Jun-07 22:30N 26°06' W 080°07'0 0.0
2018-Jun-07 22:00N 26°06' W 080°07'0 0.0
2018-Jun-07 21:30N 26°06' W 080°07'0 0.0
2018-Jun-07 21:00N 26°06' W 080°07'0 0.0
2018-Jun-07 20:30N 26°06' W 080°07'0 0.0
2018-Jun-07 20:00N 26°06' W 080°07'0 0.0
2018-Jun-07 19:30N 26°06' W 080°07'0 0.0
2018-Jun-07 19:00N 26°06' W 080°07'0 0.0
2018-Jun-07 18:30N 26°06' W 080°07'0 0.0
2018-Jun-07 17:51N 26°06' W 080°07'0 0.0
2018-Jun-07 17:21N 26°06' W 080°07'0 0.0
2018-Jun-07 16:51N 26°06' W 080°07'0 0.0
2018-Jun-07 16:24N 26°06' W 080°07'0 0.0
2018-Jun-07 15:48N 26°06' W 080°07'0 0.0
2018-Jun-07 15:18N 26°06' W 080°07'0 0.0
2018-Jun-07 14:54N 26°06' W 080°07'0 0.0
2018-Jun-07 14:24N 26°06' W 080°07'0 0.0
2018-Jun-07 13:51N 26°06' W 080°07'0 0.0
2018-Jun-07 13:21N 26°06' W 080°07'0 0.0
2018-Jun-07 12:54N 26°06' W 080°07'0 0.0
2018-Jun-07 12:27N 26°06' W 080°07'0 0.0
2018-Jun-07 11:57N 26°06' W 080°07'0 0.0
2018-Jun-07 11:27N 26°06' W 080°07'0 0.0
2018-Jun-07 10:57N 26°06' W 080°07'0 0.0
2018-Jun-07 10:27N 26°06' W 080°07'0 0.0
2018-Jun-07 10:00N 26°06' W 080°07'0 0.0
2018-Jun-07 09:30N 26°06' W 080°07'0 0.2
2018-Jun-07 09:00N 26°06' W 080°07'0 0.0
2018-Jun-07 08:30N 26°06' W 080°07'1 1.0
2018-Jun-07 08:01N 26°06' W 080°07'4 7.6
2018-Jun-07 07:30N 26°06' W 080°02'0 0.8
2018-Jun-07 07:00N 26°06' W 080°02'2 3.8
2018-Jun-07 06:30N 26°06' W 080°04'1 1.3
2018-Jun-07 06:00N 26°07' W 080°05'0 0.0
2018-Jun-07 05:28N 26°07' W 080°05'0 0.0
2018-Jun-07 04:49N 26°07' W 080°05'0 0.0
2018-Jun-07 04:19N 26°07' W 080°05'0 0.0
2018-Jun-07 03:49N 26°07' W 080°05'0 0.0
2018-Jun-07 03:22N 26°07' W 080°05'0 0.0
2018-Jun-07 02:49N 26°07' W 080°05'0 0.1
2018-Jun-07 02:22N 26°07' W 080°05'0 0.0
2018-Jun-07 01:58N 26°07' W 080°05'0 0.0
2018-Jun-07 01:25N 26°07' W 080°05'0 0.1
2018-Jun-07 00:52N 26°07' W 080°05'0 0.0
2018-Jun-07 00:22N 26°07' W 080°05'0 0.1
2018-Jun-06 23:55N 26°07' W 080°05'0 0.3
2018-Jun-06 23:19N 26°07' W 080°05'0 0.1
2018-Jun-06 22:55N 26°07' W 080°05'0 0.1
2018-Jun-06 22:25N 26°07' W 080°05'0 0.0
2018-Jun-06 21:55N 26°07' W 080°05'0 0.0
2018-Jun-06 21:25N 26°07' W 080°05'0 0.0
2018-Jun-06 20:58N 26°07' W 080°05'0 0.0
2018-Jun-06 20:28N 26°07' W 080°05'0 0.0
2018-Jun-06 19:58N 26°07' W 080°05'0 0.0
2018-Jun-06 19:28N 26°07' W 080°05'0 0.0
2018-Jun-06 18:58N 26°07' W 080°05'0 0.0
2018-Jun-06 18:28N 26°07' W 080°05'0 0.0
2018-Jun-06 17:58N 26°07' W 080°05'0 0.0
2018-Jun-06 17:28N 26°07' W 080°05'0 0.0
2018-Jun-06 16:58N 26°07' W 080°05'0 0.0
2018-Jun-06 16:28N 26°07' W 080°05'0 0.0
2018-Jun-06 15:58N 26°07' W 080°05'0 0.0
2018-Jun-06 15:28N 26°07' W 080°05'0 0.0
2018-Jun-06 14:58N 26°07' W 080°05'0 0.0
2018-Jun-06 14:28N 26°07' W 080°05'0 0.0
2018-Jun-06 13:58N 26°07' W 080°05'0 0.0
2018-Jun-06 13:19N 26°07' W 080°05'0 0.1
2018-Jun-06 12:49N 26°07' W 080°05'0 0.0
2018-Jun-06 12:19N 26°07' W 080°05'0 0.0
2018-Jun-06 11:49N 26°07' W 080°05'0 0.1
2018-Jun-06 11:22N 26°07' W 080°05'0 0.0
2018-Jun-06 10:49N 26°07' W 080°05'0 0.0
2018-Jun-06 10:22N 26°07' W 080°05'0 0.0
2018-Jun-06 09:52N 26°07' W 080°05'0 0.0
2018-Jun-06 09:25N 26°07' W 080°05'0 0.0
2018-Jun-06 08:55N 26°07' W 080°05'0 0.0
2018-Jun-06 08:22N 26°07' W 080°05'0 0.1
2018-Jun-06 07:55N 26°07' W 080°05'0 0.0
2018-Jun-06 07:25N 26°07' W 080°05'0 0.1
2018-Jun-06 06:55N 26°07' W 080°05'0 0.0
2018-Jun-06 06:25N 26°07' W 080°05'0 0.0
2018-Jun-06 05:58N 26°07' W 080°05'0 0.0
2018-Jun-06 05:22N 26°07' W 080°05'0 0.1
2018-Jun-06 04:58N 26°07' W 080°05'0 0.0
2018-Jun-06 04:25N 26°07' W 080°05'0 0.0
2018-Jun-06 03:58N 26°07' W 080°05'0 0.0
2018-Jun-06 03:28N 26°07' W 080°05'0 0.0
2018-Jun-06 02:58N 26°07' W 080°05'0 0.0
2018-Jun-06 02:28N 26°07' W 080°05'0 0.1
2018-Jun-06 01:58N 26°07' W 080°05'0 0.0
2018-Jun-06 01:28N 26°07' W 080°05'0 0.0
2018-Jun-06 01:00N 26°07' W 080°05'0 0.1
2018-Jun-06 00:30N 26°07' W 080°05'0 0.4
2018-Jun-06 00:00N 26°07' W 080°05'0 0.4
2018-Jun-05 23:30N 26°07' W 080°05'3 6.6
2018-Jun-05 23:00N 26°06' W 080°01'712.8
2018-Jun-05 22:28N 25°59' W 080°01'612.8
2018-Jun-05 22:00N 25°53' W 080°01'612.4
2018-Jun-05 21:30N 25°47' W 080°00'611.9
2018-Jun-05 21:00N 25°41' W 079°60'611.4
2018-Jun-05 20:30N 25°35' W 079°60'  

Dump ship's entire track history